logo
Search for airport 
image banner adimage banner adimage banner ad
image banner ad

SKTC - Mirador

Located in , Colombia

ICAO - , IATA -

Data provided by Airmate  

General information

Coordinates: N5°25'57" W71°36'3"
Elevation is 530 feet MSL.
Magnetic variation is -10° East
View others Airports in Casanare

Operational data

Special qualification required
Current time UTC:
Current local time:
Weather at : - ( 0 km )
METAR: KAFP 161957Z AUTO 26004KT 10SM CLR 35/20 A2991 RMK AO2 T03540201
View NOTAMs / SUP AIP / TFR affecting this airport [VIEW]
Communications frequencies: [VIEW]

Runways:

RWY identifierQFULength (ft)Width (ft)SurfaceLDA (ft)
32313°2628108DIRT
14133°2628108DIRT

Airport contact information

Address: Colombia

Satellite view of SKTC